Time;durP1;ratioP1;P1;durP2;ratioP2;P2;SDS_P1;SDS_P2;PMS_P1;PMS_P2;Temp;Humidity;BMP_temperature;BMP_pressure;BME280_temperature;BME280_humidity;BME280_pressure;Samples;Min_cycle;Max_cycle;Signal;HPM_P1;HPM_P2
2021/06/26 00:01:04;;;;;;;2.73;2.53;;;18.70;99.90;;;;;;4881107;29;20451;-78
2021/06/26 00:03:30;;;;;;;3.30;3.00;;;18.70;99.90;;;;;;4887460;29;20416;-79
2021/06/26 00:05:56;;;;;;;2.90;2.70;;;18.70;99.90;;;;;;4913486;29;20486;-83
2021/06/26 00:08:22;;;;;;;3.07;2.87;;;18.70;99.90;;;;;;4895569;29;20435;-78
2021/06/26 00:10:48;;;;;;;2.78;2.58;;;18.70;99.90;;;;;;4897688;29;20410;-78
2021/06/26 00:13:17;;;;;;;2.90;2.70;;;18.70;99.90;;;;;;4892244;29;20418;-78
2021/06/26 00:15:43;;;;;;;3.55;3.25;;;18.70;99.90;;;;;;4885688;29;20413;-78
2021/06/26 00:18:09;;;;;;;3.50;3.20;;;18.60;99.90;;;;;;4888421;29;20544;-78
2021/06/26 00:20:34;;;;;;;3.55;3.25;;;18.60;99.90;;;;;;4882423;29;20407;-78
2021/06/26 00:23:00;;;;;;;3.70;3.40;;;18.50;99.90;;;;;;4896871;29;20411;-79
2021/06/26 00:25:26;;;;;;;2.63;2.42;;;18.40;99.90;;;;;;4880771;29;20498;-78
2021/06/26 00:27:51;;;;;;;2.90;2.70;;;18.40;99.90;;;;;;4881083;29;20403;-79
2021/06/26 00:30:17;;;;;;;3.17;2.87;;;18.40;99.90;;;;;;4890143;29;20415;-78
2021/06/26 00:32:43;;;;;;;4.05;3.65;;;18.50;99.90;;;;;;4893622;29;20412;-78
2021/06/26 00:35:10;;;;;;;3.38;3.08;;;18.40;99.90;;;;;;4873057;29;20407;-78
2021/06/26 00:37:36;;;;;;;3.50;3.20;;;18.30;99.90;;;;;;4866511;29;20909;-79
2021/06/26 00:40:03;;;;;;;3.50;3.20;;;18.30;99.90;;;;;;4896472;29;20418;-78
2021/06/26 00:42:32;;;;;;;3.40;3.10;;;18.30;99.90;;;;;;4899379;29;20481;-82
2021/06/26 00:44:57;;;;;;;3.30;3.00;;;18.20;99.90;;;;;;4896809;29;20392;-80
2021/06/26 00:47:23;;;;;;;3.00;2.80;;;18.20;99.90;;;;;;4893957;29;20456;-79
2021/06/26 00:49:49;;;;;;;2.90;2.70;;;18.20;99.90;;;;;;4910058;29;20429;-79
2021/06/26 00:52:14;;;;;;;3.53;3.23;;;18.20;99.90;;;;;;4905078;29;20391;-77
2021/06/26 00:54:40;;;;;;;2.83;2.63;;;18.20;99.90;;;;;;4868546;29;20409;-78
2021/06/26 00:57:06;;;;;;;2.78;2.58;;;18.20;99.90;;;;;;4880584;29;20397;-80
2021/06/26 00:59:31;;;;;;;3.30;3.00;;;18.10;99.90;;;;;;4896513;29;20414;-78
2021/06/26 01:01:58;;;;;;;2.63;2.42;;;18.10;99.90;;;;;;4887259;29;20479;-79
2021/06/26 01:04:23;;;;;;;3.30;3.00;;;18.10;99.90;;;;;;4901308;29;20401;-82
2021/06/26 01:06:49;;;;;;;3.00;2.77;;;18.10;99.90;;;;;;4894316;29;20777;-78
2021/06/26 01:09:15;;;;;;;2.90;2.70;;;18.10;99.90;;;;;;4880955;29;20471;-78
2021/06/26 01:11:40;;;;;;;2.97;2.78;;;18.10;99.90;;;;;;4885668;29;20415;-78
2021/06/26 01:14:06;;;;;;;3.10;2.80;;;18.10;99.90;;;;;;4863135;29;20413;-79
2021/06/26 01:16:32;;;;;;;2.88;2.67;;;18.10;99.90;;;;;;4896090;29;20407;-77
2021/06/26 01:18:57;;;;;;;4.00;2.60;;;18.00;99.90;;;;;;4897039;29;20407;-79
2021/06/26 01:21:23;;;;;;;2.80;2.60;;;18.00;99.90;;;;;;4881456;29;20407;-78
2021/06/26 01:23:53;;;;;;;2.80;2.60;;;18.00;99.90;;;;;;4880335;29;20396;-77
2021/06/26 01:26:21;;;;;;;2.38;2.25;;;18.00;99.90;;;;;;4911824;29;20935;-81
2021/06/26 01:28:47;;;;;;;2.60;2.40;;;17.90;99.90;;;;;;4897676;29;20463;-78
2021/06/26 01:31:12;;;;;;;2.58;2.38;;;18.00;99.90;;;;;;4876918;29;20425;-78
2021/06/26 01:33:38;;;;;;;2.95;2.75;;;18.00;99.90;;;;;;4898150;29;20404;-78
2021/06/26 01:36:04;;;;;;;2.30;2.20;;;18.00;99.90;;;;;;4879846;29;20405;-83
2021/06/26 01:38:29;;;;;;;2.80;2.60;;;18.10;99.90;;;;;;4865375;29;20406;-78
2021/06/26 01:40:55;;;;;;;3.00;2.70;;;18.10;99.90;;;;;;4911998;29;20408;-77
2021/06/26 01:43:21;;;;;;;2.55;2.35;;;18.10;99.90;;;;;;4881038;29;20415;-80
2021/06/26 01:45:46;;;;;;;2.70;2.50;;;18.00;99.90;;;;;;4882495;29;20406;-78
2021/06/26 01:48:12;;;;;;;3.03;2.77;;;18.10;99.90;;;;;;4917232;29;20411;-80
2021/06/26 01:50:38;;;;;;;2.67;2.47;;;18.00;99.90;;;;;;4877253;29;20417;-79
2021/06/26 01:53:03;;;;;;;2.33;2.23;;;18.00;99.90;;;;;;4874455;29;20407;-78
2021/06/26 01:55:29;;;;;;;2.70;2.50;;;17.90;99.90;;;;;;4864616;29;20903;-78
2021/06/26 01:57:55;;;;;;;2.40;2.30;;;18.00;99.90;;;;;;4891851;29;20463;-77
2021/06/26 02:00:22;;;;;;;3.13;2.92;;;17.90;99.90;;;;;;4900356;29;20421;-78
2021/06/26 02:02:48;;;;;;;2.60;2.40;;;17.90;99.90;;;;;;4903544;29;20489;-79
2021/06/26 02:05:16;;;;;;;2.60;2.40;;;17.90;99.90;;;;;;4885326;29;20432;-78
2021/06/26 02:07:41;;;;;;;2.60;2.40;;;17.80;99.90;;;;;;4912016;29;20415;-78
2021/06/26 02:10:07;;;;;;;2.10;2.00;;;17.80;99.90;;;;;;4895745;29;20555;-77
2021/06/26 02:12:33;;;;;;;2.15;2.05;;;17.90;99.90;;;;;;4895719;29;20484;-81
2021/06/26 02:14:59;;;;;;;2.77;2.57;;;17.90;99.90;;;;;;4881021;29;20405;-78
2021/06/26 02:17:24;;;;;;;3.28;2.97;;;17.80;99.90;;;;;;4893969;29;20457;-78
2021/06/26 02:19:50;;;;;;;2.50;2.38;;;17.80;99.90;;;;;;4880534;29;20401;-79
2021/06/26 02:22:17;;;;;;;2.92;2.70;;;17.80;99.90;;;;;;4881654;29;20484;-78
2021/06/26 02:24:42;;;;;;;3.00;2.70;;;17.80;99.90;;;;;;4883266;29;20402;-78
2021/06/26 02:27:08;;;;;;;3.30;3.00;;;17.80;99.90;;;;;;4892845;29;20403;-78
2021/06/26 02:29:34;;;;;;;3.13;2.93;;;17.80;99.90;;;;;;4897451;29;20422;-78
2021/06/26 02:31:59;;;;;;;3.00;2.80;;;17.80;99.90;;;;;;4896468;29;20403;-78
2021/06/26 02:34:25;;;;;;;2.50;2.30;;;17.80;99.90;;;;;;4896049;29;21134;-78
2021/06/26 02:36:51;;;;;;;2.90;2.67;;;17.80;99.90;;;;;;4881231;29;20464;-80
2021/06/26 02:39:17;;;;;;;4.17;3.10;;;17.80;99.90;;;;;;4895932;29;20405;-79
2021/06/26 02:41:42;;;;;;;2.85;2.65;;;17.80;99.90;;;;;;4881413;29;20417;-78
2021/06/26 02:44:08;;;;;;;2.90;2.70;;;17.80;99.90;;;;;;4897701;29;20765;-79
2021/06/26 02:46:34;;;;;;;2.92;2.72;;;17.70;99.90;;;;;;4880559;29;20464;-79
2021/06/26 02:48:59;;;;;;;2.90;2.70;;;17.70;99.90;;;;;;4880768;29;20490;-79
2021/06/26 02:51:25;;;;;;;3.40;3.13;;;17.70;99.90;;;;;;4912435;29;20406;-83
2021/06/26 02:53:51;;;;;;;3.28;3.05;;;17.60;99.90;;;;;;4885788;29;20412;-78
2021/06/26 02:56:16;;;;;;;3.13;2.87;;;17.70;99.90;;;;;;4892208;29;20399;-79
2021/06/26 02:58:42;;;;;;;3.20;2.90;;;17.70;99.90;;;;;;4898304;29;20407;-79
2021/06/26 03:01:08;;;;;;;2.90;2.70;;;17.60;99.90;;;;;;4897341;29;20403;-79
2021/06/26 03:03:33;;;;;;;3.20;2.90;;;17.60;99.90;;;;;;4879328;29;20393;-79
2021/06/26 03:05:59;;;;;;;3.42;3.00;;;17.60;99.90;;;;;;4886324;29;20416;-79
2021/06/26 03:08:25;;;;;;;3.20;3.00;;;17.60;99.90;;;;;;4930262;29;20404;-78
2021/06/26 03:10:50;;;;;;;3.30;3.00;;;17.60;99.90;;;;;;4928066;29;20913;-79
2021/06/26 03:13:16;;;;;;;2.80;2.60;;;17.60;99.90;;;;;;4912048;29;20473;-80
2021/06/26 03:15:43;;;;;;;2.90;2.70;;;17.50;99.90;;;;;;4896826;29;20427;-78
2021/06/26 03:18:08;;;;;;;2.90;2.70;;;17.50;99.90;;;;;;4896309;29;20405;-79
2021/06/26 03:20:34;;;;;;;2.70;2.50;;;17.50;99.90;;;;;;4913815;29;20403;-82
2021/06/26 03:23:00;;;;;;;3.25;2.95;;;17.50;99.90;;;;;;4879104;29;20412;-79
2021/06/26 03:25:25;;;;;;;2.78;2.58;;;17.50;99.90;;;;;;4895389;29;20464;-78
2021/06/26 03:27:51;;;;;;;2.70;2.50;;;17.50;99.90;;;;;;4898025;29;20980;-79
2021/06/26 03:30:17;;;;;;;3.42;3.13;;;17.50;99.90;;;;;;4895929;29;20913;-81
2021/06/26 03:32:43;;;;;;;3.50;3.20;;;17.50;99.90;;;;;;4895915;29;20418;-79
2021/06/26 03:35:09;;;;;;;3.55;3.20;;;17.30;99.90;;;;;;4898984;29;20407;-79
2021/06/26 03:37:34;;;;;;;2.92;2.72;;;17.30;99.90;;;;;;4895283;29;20662;-80
2021/06/26 03:40:00;;;;;;;3.72;3.15;;;17.20;99.90;;;;;;4896826;29;21093;-79
2021/06/26 03:42:26;;;;;;;3.17;2.93;;;17.20;99.90;;;;;;4889796;29;20783;-82
2021/06/26 03:44:51;;;;;;;5.70;3.47;;;17.30;99.90;;;;;;4863867;29;20431;-81
2021/06/26 03:47:17;;;;;;;3.80;3.40;;;17.30;99.90;;;;;;4896609;29;20483;-79
2021/06/26 03:49:43;;;;;;;3.47;3.17;;;17.30;99.90;;;;;;4896792;29;20420;-79
2021/06/26 03:52:08;;;;;;;3.60;3.30;;;17.30;99.90;;;;;;4877118;29;20507;-79
2021/06/26 03:54:34;;;;;;;3.57;3.27;;;17.30;99.90;;;;;;4883344;29;20399;-80
2021/06/26 03:57:00;;;;;;;3.50;3.20;;;17.30;99.90;;;;;;4867539;29;20495;-79
2021/06/26 03:59:26;;;;;;;4.03;3.73;;;17.40;99.90;;;;;;4882210;29;20410;-82
2021/06/26 04:01:51;;;;;;;3.90;3.55;;;17.40;99.90;;;;;;4882232;29;21158;-79
2021/06/26 04:04:19;;;;;;;3.67;3.37;;;17.40;99.90;;;;;;4872816;29;20413;-79
2021/06/26 04:06:45;;;;;;;3.95;3.55;;;17.40;99.90;;;;;;4879970;29;20422;-79
2021/06/26 04:09:10;;;;;;;4.13;3.70;;;17.40;99.90;;;;;;4864620;29;20413;-79
2021/06/26 04:11:36;;;;;;;3.50;3.20;;;17.40;99.90;;;;;;4888854;29;21143;-84
2021/06/26 04:14:02;;;;;;;4.20;3.90;;;17.40;99.90;;;;;;4882544;29;20395;-79
2021/06/26 04:16:27;;;;;;;4.40;4.00;;;17.40;99.90;;;;;;4881260;29;20436;-79
2021/06/26 04:18:53;;;;;;;4.60;4.20;;;17.40;99.90;;;;;;4897501;29;20419;-79
2021/06/26 04:21:19;;;;;;;3.70;3.40;;;17.50;99.90;;;;;;4895372;29;20412;-79
2021/06/26 04:23:44;;;;;;;4.28;3.85;;;17.50;99.90;;;;;;4908506;29;20492;-82
2021/06/26 04:26:10;;;;;;;4.80;3.80;;;17.50;99.90;;;;;;4898175;29;20471;-79
2021/06/26 04:28:36;;;;;;;3.20;3.00;;;17.50;99.90;;;;;;4898292;29;20785;-82
2021/06/26 04:31:01;;;;;;;3.70;3.40;;;17.50;99.90;;;;;;4896273;29;20474;-79
2021/06/26 04:33:28;;;;;;;4.43;4.03;;;17.50;99.90;;;;;;4893291;29;20406;-80
2021/06/26 04:35:53;;;;;;;3.67;3.38;;;17.60;99.90;;;;;;4880038;29;20459;-79
2021/06/26 04:38:22;;;;;;;4.22;3.85;;;17.60;99.90;;;;;;4894079;29;20465;-79
2021/06/26 04:40:51;;;;;;;3.85;3.45;;;17.60;99.90;;;;;;4910193;29;20463;-79
2021/06/26 04:43:17;;;;;;;3.92;3.17;;;17.70;99.90;;;;;;4878919;29;20488;-81
2021/06/26 04:45:46;;;;;;;3.67;3.38;;;17.70;99.90;;;;;;4893128;29;20412;-79
2021/06/26 04:48:15;;;;;;;3.65;3.10;;;17.70;99.90;;;;;;4898126;29;20407;-80
2021/06/26 04:50:40;;;;;;;4.78;4.28;;;17.80;99.90;;;;;;4882724;29;20840;-80
2021/06/26 04:53:06;;;;;;;3.40;3.10;;;17.80;99.90;;;;;;4883142;29;20461;-81
2021/06/26 04:55:32;;;;;;;2.90;2.70;;;17.80;99.90;;;;;;4848172;29;21013;-79
2021/06/26 04:57:57;;;;;;;3.83;3.45;;;17.90;99.90;;;;;;4875410;29;20929;-79
2021/06/26 05:00:23;;;;;;;4.53;4.13;;;18.00;99.90;;;;;;4903352;29;20951;-79
2021/06/26 05:02:49;;;;;;;4.30;3.83;;;18.00;99.90;;;;;;4896902;29;20519;-79
2021/06/26 05:05:14;;;;;;;3.60;3.30;;;18.00;99.90;;;;;;4894229;29;20401;-81
2021/06/26 05:07:40;;;;;;;3.70;3.40;;;18.00;99.90;;;;;;4877989;29;20405;-83
2021/06/26 05:10:06;;;;;;;3.63;3.33;;;18.10;99.90;;;;;;4898998;29;21019;-79
2021/06/26 05:12:31;;;;;;;3.87;3.47;;;18.20;99.90;;;;;;4893567;29;20633;-78
2021/06/26 05:14:57;;;;;;;4.05;3.65;;;18.20;99.90;;;;;;4897135;29;20464;-78
2021/06/26 05:17:23;;;;;;;3.73;3.43;;;18.20;99.90;;;;;;4900577;29;20409;-81
2021/06/26 05:19:48;;;;;;;3.92;3.63;;;18.30;99.90;;;;;;4899398;29;20912;-83
2021/06/26 05:22:14;;;;;;;4.53;4.13;;;18.40;99.90;;;;;;4872038;29;20996;-77
2021/06/26 05:24:40;;;;;;;4.53;4.17;;;18.40;99.90;;;;;;4902450;29;20957;-78
2021/06/26 05:27:06;;;;;;;5.32;4.47;;;18.40;99.90;;;;;;4887344;29;20419;-81
2021/06/26 05:29:33;;;;;;;5.13;4.40;;;18.30;99.90;;;;;;4888304;29;20410;-78
2021/06/26 05:31:58;;;;;;;4.38;3.97;;;18.40;99.90;;;;;;4896267;29;20438;-78
2021/06/26 05:34:24;;;;;;;4.45;4.05;;;18.50;99.90;;;;;;4882901;29;20451;-79
2021/06/26 05:36:50;;;;;;;4.28;3.97;;;18.60;99.90;;;;;;4888326;29;20391;-78
2021/06/26 05:39:15;;;;;;;4.53;4.13;;;18.60;99.90;;;;;;4915480;29;20491;-81
2021/06/26 05:41:41;;;;;;;4.50;4.07;;;18.60;99.90;;;;;;4884143;29;20419;-81
2021/06/26 05:44:07;;;;;;;4.83;4.43;;;18.70;99.90;;;;;;4894941;29;20466;-78
2021/06/26 05:46:32;;;;;;;4.27;3.97;;;18.70;99.90;;;;;;4888021;29;20921;-78
2021/06/26 05:48:59;;;;;;;4.10;3.80;;;18.60;99.90;;;;;;4915686;29;20406;-80
2021/06/26 05:51:24;;;;;;;4.25;3.95;;;18.70;99.90;;;;;;4878407;29;20426;-80
2021/06/26 05:53:50;;;;;;;5.20;4.00;;;18.70;99.90;;;;;;4865432;29;20459;-79
2021/06/26 05:56:16;;;;;;;5.40;3.85;;;18.70;99.90;;;;;;4900275;29;20478;-81
2021/06/26 05:58:42;;;;;;;5.43;4.93;;;18.80;99.90;;;;;;4877840;29;21008;-79
2021/06/26 06:01:10;;;;;;;4.78;4.38;;;18.90;99.90;;;;;;4898165;29;20411;-81
2021/06/26 06:03:36;;;;;;;4.20;3.90;;;18.90;99.90;;;;;;4859148;29;20413;-82
2021/06/26 06:06:01;;;;;;;5.33;4.83;;;19.10;99.90;;;;;;4906265;29;20821;-80
2021/06/26 06:08:27;;;;;;;4.95;4.53;;;19.20;99.90;;;;;;4879427;29;20418;-78
2021/06/26 06:10:53;;;;;;;3.70;3.40;;;19.20;99.90;;;;;;4889224;29;20458;-78
2021/06/26 06:13:20;;;;;;;4.20;3.90;;;19.40;99.90;;;;;;4889081;29;20480;-78
2021/06/26 06:15:47;;;;;;;4.68;3.95;;;19.60;99.90;;;;;;4889066;29;20416;-78
2021/06/26 06:18:13;;;;;;;4.15;3.80;;;19.70;99.90;;;;;;4897603;29;20423;-80
2021/06/26 06:20:39;;;;;;;4.07;3.67;;;19.80;99.90;;;;;;4898002;29;20470;-79
2021/06/26 06:23:05;;;;;;;3.95;3.65;;;20.00;99.90;;;;;;4871698;29;20401;-78
2021/06/26 06:25:31;;;;;;;3.83;3.53;;;20.00;99.90;;;;;;4877881;29;20931;-83
2021/06/26 06:27:57;;;;;;;3.85;3.42;;;20.20;99.90;;;;;;4895836;29;20913;-79
2021/06/26 06:30:23;;;;;;;4.00;3.65;;;20.30;99.90;;;;;;4874687;29;20417;-80
2021/06/26 06:32:49;;;;;;;3.53;3.23;;;20.30;99.90;;;;;;4880713;29;20432;-80
2021/06/26 06:35:14;;;;;;;3.97;3.67;;;20.40;99.90;;;;;;4877111;29;20901;-78
2021/06/26 06:37:40;;;;;;;4.05;3.67;;;20.50;99.90;;;;;;4882002;29;20790;-81
2021/06/26 06:40:06;;;;;;;3.67;3.37;;;20.60;99.90;;;;;;4886796;28;20418;-78
2021/06/26 06:42:32;;;;;;;3.85;3.45;;;20.60;99.90;;;;;;4897441;29;20399;-78
2021/06/26 06:44:58;;;;;;;4.63;3.20;;;20.70;99.90;;;;;;4902324;29;20841;-79
2021/06/26 06:47:24;;;;;;;4.57;4.07;;;20.80;99.90;;;;;;4900353;29;20435;-81
2021/06/26 06:49:49;;;;;;;3.40;3.10;;;20.80;99.90;;;;;;4883296;29;20483;-78
2021/06/26 06:52:15;;;;;;;3.77;3.47;;;20.70;99.90;;;;;;4882302;29;20421;-79
2021/06/26 06:54:41;;;;;;;3.53;3.23;;;20.80;99.90;;;;;;4889822;29;20420;-79
2021/06/26 06:57:07;;;;;;;3.90;3.47;;;20.90;99.90;;;;;;4883855;29;20484;-81
2021/06/26 06:59:32;;;;;;;3.60;3.30;;;20.70;99.90;;;;;;4884879;29;20449;-78
2021/06/26 07:01:58;;;;;;;3.17;2.97;;;20.80;99.90;;;;;;4883765;29;20419;-80
2021/06/26 07:04:24;;;;;;;3.07;2.87;;;20.90;99.90;;;;;;4915125;29;20409;-80
2021/06/26 07:06:50;;;;;;;2.90;2.70;;;21.00;99.90;;;;;;4904830;29;20490;-80
2021/06/26 07:09:16;;;;;;;3.30;3.00;;;21.30;99.90;;;;;;4909674;29;20432;-78
2021/06/26 07:11:42;;;;;;;3.37;2.90;;;21.40;99.90;;;;;;4896783;29;21066;-78
2021/06/26 07:14:07;;;;;;;3.43;3.00;;;21.60;99.90;;;;;;4866045;29;20415;-78
2021/06/26 07:16:33;;;;;;;3.17;2.95;;;21.70;99.90;;;;;;4884574;29;20411;-78
2021/06/26 07:18:58;;;;;;;2.80;2.60;;;22.00;99.90;;;;;;4870971;29;20425;-80
2021/06/26 07:21:24;;;;;;;2.87;2.67;;;22.20;99.90;;;;;;4886558;29;20423;-78
2021/06/26 07:23:50;;;;;;;3.03;2.80;;;22.30;99.90;;;;;;4912102;29;20411;-79
2021/06/26 07:26:15;;;;;;;2.78;2.55;;;22.50;99.90;;;;;;4937005;29;20395;-82
2021/06/26 07:28:41;;;;;;;2.90;2.60;;;22.60;99.90;;;;;;4912980;29;20398;-79
2021/06/26 07:31:07;;;;;;;2.92;2.72;;;22.70;99.90;;;;;;4911092;29;20429;-77
2021/06/26 07:33:32;;;;;;;2.50;2.33;;;22.90;99.90;;;;;;4905874;29;20471;-78
2021/06/26 07:35:58;;;;;;;2.83;2.63;;;22.90;99.90;;;;;;4900524;29;20483;-79
2021/06/26 07:38:24;;;;;;;2.85;2.65;;;23.20;99.90;;;;;;4902690;29;20415;-79
2021/06/26 07:40:50;;;;;;;2.85;2.63;;;23.50;99.90;;;;;;4903925;29;20403;-78
2021/06/26 07:43:15;;;;;;;2.50;2.30;;;23.70;99.90;;;;;;4900039;29;20413;-81
2021/06/26 07:45:41;;;;;;;2.60;2.40;;;24.00;99.90;;;;;;4897934;29;20465;-80
2021/06/26 07:48:07;;;;;;;2.87;2.67;;;24.30;99.90;;;;;;4867840;29;20397;-79
2021/06/26 07:50:33;;;;;;;3.07;2.87;;;24.30;99.90;;;;;;4883909;29;20984;-80
2021/06/26 07:52:58;;;;;;;3.25;3.05;;;24.50;99.90;;;;;;4876367;29;20409;-80
2021/06/26 07:55:24;;;;;;;3.07;2.87;;;24.50;99.90;;;;;;4890165;29;20458;-80
2021/06/26 07:57:49;;;;;;;3.10;2.80;;;24.30;99.90;;;;;;4881864;29;20429;-79
2021/06/26 08:00:16;;;;;;;3.13;2.78;;;24.30;99.90;;;;;;4895218;29;20464;-80
2021/06/26 08:02:41;;;;;;;3.50;3.20;;;24.30;99.90;;;;;;4880221;29;20416;-81
2021/06/26 08:05:07;;;;;;;2.75;2.55;;;24.10;99.90;;;;;;4909769;29;20399;-81
2021/06/26 08:07:33;;;;;;;3.33;2.63;;;24.30;99.90;;;;;;4887454;29;20470;-81
2021/06/26 08:09:59;;;;;;;2.88;2.67;;;24.60;99.90;;;;;;4884274;29;20411;-81
2021/06/26 08:12:33;;;;;;;2.80;2.55;;;24.60;99.90;;;;;;4862217;29;20516;-81
2021/06/26 08:15:01;;;;;;;3.60;2.60;;;24.90;99.90;;;;;;4894545;29;20471;-80
2021/06/26 08:17:27;;;;;;;2.95;2.75;;;25.20;99.90;;;;;;4917390;29;20873;-80
2021/06/26 08:20:23;;;;;;;4.15;3.13;;;25.40;99.90;;;;;;4871276;29;20445;-81
2021/06/26 08:29:30;;;;;;;3.22;2.92;;;25.00;99.90;;;;;;4894558;29;20410;-80
2021/06/26 08:32:04;;;;;;;3.17;2.92;;;24.40;99.90;;;;;;4895955;29;20439;-82
2021/06/26 08:34:31;;;;;;;3.03;2.80;;;24.20;99.90;;;;;;4885555;29;20413;-81
2021/06/26 08:36:57;;;;;;;3.05;2.75;;;24.10;99.90;;;;;;4887134;29;20417;-81
2021/06/26 08:39:23;;;;;;;3.90;2.83;;;23.70;99.90;;;;;;4890184;29;20438;-80
2021/06/26 08:41:49;;;;;;;2.78;2.55;;;23.90;99.90;;;;;;4881408;29;20410;-81
2021/06/26 08:44:17;;;;;;;3.60;3.30;;;23.90;99.90;;;;;;4867014;29;20399;-81
2021/06/26 08:46:45;;;;;;;3.30;3.10;;;24.10;99.90;;;;;;4884660;29;20411;-80
2021/06/26 08:49:13;;;;;;;3.55;3.25;;;24.30;99.90;;;;;;4898545;29;20785;-81
2021/06/26 08:51:40;;;;;;;3.22;2.92;;;23.90;99.90;;;;;;4895229;29;21020;-82
2021/06/26 08:54:13;;;;;;;3.28;3.05;;;24.20;99.90;;;;;;4897079;29;20403;-82
2021/06/26 08:56:40;;;;;;;3.60;3.30;;;24.20;99.90;;;;;;4892549;29;20464;-81
2021/06/26 08:59:06;;;;;;;20.70;8.85;;;24.30;99.90;;;;;;4893649;29;20779;-79
2021/06/26 09:01:42;;;;;;;3.80;3.50;;;24.40;99.90;;;;;;4878234;29;20472;-82
2021/06/26 09:04:21;;;;;;;3.45;3.00;;;24.80;99.90;;;;;;4913048;29;20396;-83
2021/06/26 09:06:58;;;;;;;4.50;3.40;;;24.60;99.90;;;;;;4873770;29;20418;-81
2021/06/26 09:09:31;;;;;;;3.55;3.08;;;24.40;99.90;;;;;;4913231;29;20407;-82
2021/06/26 09:12:04;;;;;;;3.03;2.83;;;24.50;99.90;;;;;;4912954;29;20431;-81
2021/06/26 09:14:30;;;;;;;3.90;2.83;;;24.70;99.90;;;;;;4894702;29;20771;-81
2021/06/26 09:16:56;;;;;;;2.53;2.33;;;24.90;99.90;;;;;;4895965;29;20490;-81
2021/06/26 09:19:22;;;;;;;2.15;1.95;;;24.60;99.90;;;;;;4881005;29;20488;-81
2021/06/26 09:22:01;;;;;;;2.10;2.00;;;24.60;99.90;;;;;;4879153;29;20415;-82
2021/06/26 09:24:42;;;;;;;2.40;2.20;;;24.90;99.90;;;;;;4894992;29;20399;-82
2021/06/26 09:27:10;;;;;;;2.38;2.17;;;24.80;99.90;;;;;;4872693;29;21269;-83
2021/06/26 09:29:48;;;;;;;2.95;2.75;;;24.90;99.90;;;;;;4843706;29;20437;-82
2021/06/26 09:32:25;;;;;;;3.45;2.97;;;25.00;99.90;;;;;;4882196;29;20430;-79
2021/06/26 09:34:58;;;;;;;3.28;2.92;;;25.00;99.90;;;;;;4896327;29;20489;-83
2021/06/26 09:37:32;;;;;;;2.65;2.40;;;25.30;99.90;;;;;;4910148;29;20450;-81
2021/06/26 09:40:30;;;;;;;2.85;2.28;;;25.70;99.90;;;;;;4884302;29;20376;-81
2021/06/26 09:42:55;;;;;;;2.67;2.47;;;25.90;99.90;;;;;;4914057;29;20801;-81
2021/06/26 09:45:21;;;;;;;3.28;2.58;;;26.30;99.90;;;;;;4909527;29;20455;-81
2021/06/26 09:47:47;;;;;;;2.50;2.30;;;26.10;99.90;;;;;;4896283;29;20481;-82
2021/06/26 09:50:13;;;;;;;2.95;2.40;;;25.50;99.90;;;;;;4888285;29;21065;-82
2021/06/26 09:52:46;;;;;;;2.53;2.33;;;25.00;99.90;;;;;;4912543;29;20413;-81
2021/06/26 09:55:13;;;;;;;3.33;3.03;;;24.80;99.90;;;;;;4905543;29;20401;-84
2021/06/26 09:57:39;;;;;;;2.63;2.42;;;24.60;99.90;;;;;;4900809;29;20401;-80
2021/06/26 10:00:05;;;;;;;2.40;2.17;;;24.60;99.90;;;;;;4898556;29;20407;-83
2021/06/26 10:02:35;;;;;;;2.50;2.30;;;24.60;99.90;;;;;;4902636;29;20919;-81
2021/06/26 10:05:01;;;;;;;2.20;2.10;;;24.30;99.90;;;;;;4895323;29;20401;-81
2021/06/26 10:07:31;;;;;;;2.30;2.10;;;24.40;99.90;;;;;;4882347;29;20433;-82
2021/06/26 10:09:57;;;;;;;2.45;2.25;;;24.40;99.90;;;;;;4882253;29;20403;-82
2021/06/26 10:12:23;;;;;;;2.30;2.10;;;24.40;99.90;;;;;;4880829;29;20490;-82
2021/06/26 10:14:49;;;;;;;2.20;2.10;;;24.50;99.90;;;;;;4894318;29;20413;-82
2021/06/26 10:17:15;;;;;;;3.15;2.47;;;24.40;99.90;;;;;;4885953;29;20805;-81
2021/06/26 10:19:42;;;;;;;2.95;2.75;;;24.30;99.90;;;;;;4890001;29;20466;-83
2021/06/26 10:22:09;;;;;;;2.33;2.13;;;24.30;99.90;;;;;;4901159;29;20419;-81
2021/06/26 10:24:35;;;;;;;3.92;2.50;;;24.40;99.90;;;;;;4904509;29;20554;-79
2021/06/26 10:27:01;;;;;;;2.20;2.00;;;24.50;99.90;;;;;;4883880;29;20789;-82
2021/06/26 10:29:30;;;;;;;2.33;2.13;;;24.60;99.90;;;;;;4875771;29;20419;-79
2021/06/26 10:31:56;;;;;;;3.47;2.60;;;24.70;99.90;;;;;;4880102;29;20431;-80
2021/06/26 10:34:23;;;;;;;2.88;2.50;;;24.80;99.90;;;;;;4880517;29;20821;-78
2021/06/26 10:36:54;;;;;;;4.30;2.93;;;24.50;99.90;;;;;;4906623;29;20404;-80
2021/06/26 10:39:25;;;;;;;2.50;2.30;;;24.40;99.90;;;;;;4883494;29;20447;-80
2021/06/26 10:42:07;;;;;;;2.53;2.33;;;24.30;99.90;;;;;;4888640;29;20403;-80
2021/06/26 10:44:45;;;;;;;33.92;30.48;;;24.10;99.90;;;;;;4890522;29;20966;-81
2021/06/26 10:47:11;;;;;;;2.80;2.60;;;24.30;99.90;;;;;;4884304;29;20528;-80
2021/06/26 10:49:37;;;;;;;2.50;2.10;;;24.30;99.90;;;;;;4881617;29;20491;-78
2021/06/26 10:52:08;;;;;;;2.00;1.90;;;24.00;99.90;;;;;;4898378;29;20431;-81
2021/06/26 10:54:34;;;;;;;2.53;2.33;;;23.90;99.90;;;;;;4881436;29;20501;-80
2021/06/26 10:57:06;;;;;;;2.35;2.15;;;23.70;99.90;;;;;;4931539;29;20399;-81
2021/06/26 10:59:32;;;;;;;2.17;2.00;;;23.60;99.90;;;;;;4867174;29;20464;-81
2021/06/26 11:02:00;;;;;;;2.55;2.35;;;23.90;99.90;;;;;;4868023;29;20431;-80
2021/06/26 11:04:27;;;;;;;2.25;2.05;;;23.90;99.90;;;;;;4874735;29;20926;-80
2021/06/26 11:07:07;;;;;;;2.65;2.00;;;24.50;99.90;;;;;;4885439;29;20456;-79
2021/06/26 11:09:37;;;;;;;2.05;1.95;;;24.80;99.90;;;;;;4885070;29;20486;-79
2021/06/26 11:12:07;;;;;;;2.10;1.90;;;25.20;99.90;;;;;;4883639;29;20439;-80
2021/06/26 11:14:33;;;;;;;2.03;1.83;;;25.30;99.90;;;;;;4872289;29;20927;-79
2021/06/26 11:16:59;;;;;;;2.33;2.13;;;25.60;99.90;;;;;;4880883;29;20544;-78
2021/06/26 11:19:32;;;;;;;2.40;2.20;;;26.00;99.90;;;;;;4883321;29;20412;-78
2021/06/26 11:21:58;;;;;;;2.35;2.15;;;26.30;99.90;;;;;;4887553;29;20419;-78
2021/06/26 11:24:44;;;;;;;2.15;2.05;;;26.30;99.90;;;;;;4892780;29;20407;-79
2021/06/26 11:27:14;;;;;;;2.50;2.30;;;27.00;99.90;;;;;;4911892;29;20948;-80
2021/06/26 11:29:42;;;;;;;2.25;2.05;;;27.50;99.90;;;;;;4882524;29;20432;-79
2021/06/26 11:32:19;;;;;;;2.20;2.00;;;28.20;99.90;;;;;;4892061;29;20432;-78
2021/06/26 11:34:58;;;;;;;3.70;2.30;;;28.80;99.90;;;;;;4917363;29;20503;-79
2021/06/26 11:37:32;;;;;;;2.30;2.10;;;28.90;99.90;;;;;;4880236;29;20400;-79
2021/06/26 11:39:58;;;;;;;2.25;1.95;;;28.90;99.90;;;;;;4876318;29;20485;-79
2021/06/26 11:42:26;;;;;;;2.40;2.20;;;29.30;99.90;;;;;;4891832;29;20410;-80
2021/06/26 11:44:51;;;;;;;2.00;1.90;;;29.70;99.70;;;;;;4885086;29;20415;-79
2021/06/26 11:47:17;;;;;;;2.60;2.40;;;29.90;98.10;;;;;;4880544;29;20420;-80
2021/06/26 11:49:45;;;;;;;2.90;2.65;;;30.10;99.40;;;;;;4901413;29;20427;-80
2021/06/26 11:52:14;;;;;;;2.75;2.20;;;28.80;94.20;;;;;;4893813;29;20429;-80
2021/06/26 11:54:41;;;;;;;2.70;2.08;;;29.40;99.30;;;;;;4869443;29;21166;-80
2021/06/26 11:57:11;;;;;;;2.37;2.03;;;29.50;99.70;;;;;;4882412;24;20419;-79
2021/06/26 11:59:44;;;;;;;1.90;1.80;;;29.80;99.80;;;;;;4942566;29;20410;-80
2021/06/26 12:02:10;;;;;;;2.10;2.00;;;29.70;99.10;;;;;;4919976;29;20420;-82
2021/06/26 12:04:38;;;;;;;2.08;1.90;;;29.30;97.90;;;;;;4905178;29;20407;-80
2021/06/26 12:07:11;;;;;;;1.83;1.73;;;28.90;97.80;;;;;;4913182;29;20451;-80
2021/06/26 12:09:40;;;;;;;1.95;1.85;;;28.80;98.00;;;;;;4930187;29;20490;-83
2021/06/26 12:12:07;;;;;;;2.03;1.90;;;28.80;98.50;;;;;;4888442;29;20524;-81
2021/06/26 12:14:33;;;;;;;2.42;1.90;;;28.70;97.30;;;;;;4903402;29;20417;-80
2021/06/26 12:17:10;;;;;;;1.90;1.80;;;28.70;97.10;;;;;;4912770;29;20438;-79
2021/06/26 12:19:36;;;;;;;1.70;1.60;;;28.30;96.40;;;;;;4877281;29;20409;-80
2021/06/26 12:22:03;;;;;;;1.77;1.67;;;28.40;97.50;;;;;;4898587;29;20431;-80
2021/06/26 12:24:32;;;;;;;2.10;1.90;;;28.10;94.90;;;;;;4893608;29;20957;-80
2021/06/26 12:27:29;;;;;;;2.03;1.90;;;27.80;96.20;;;;;;4906758;29;20443;-79
2021/06/26 12:30:16;;;;;;;1.83;1.73;;;27.40;95.70;;;;;;4894152;28;20451;-80
2021/06/26 12:32:43;;;;;;;1.67;1.58;;;27.60;96.10;;;;;;4902450;29;20529;-79
2021/06/26 12:35:10;;;;;;;1.85;1.75;;;27.60;95.40;;;;;;4877472;29;20498;-79
2021/06/26 12:37:41;;;;;;;1.90;1.80;;;27.40;96.60;;;;;;4923176;29;20406;-80
2021/06/26 12:40:12;;;;;;;2.72;2.20;;;27.10;95.60;;;;;;4874396;29;20487;-79
2021/06/26 12:42:51;;;;;;;1.90;1.80;;;26.60;97.90;;;;;;4901075;29;20404;-80
2021/06/26 12:45:17;;;;;;;3.75;1.67;;;26.40;98.80;;;;;;4884585;29;20447;-80
2021/06/26 12:47:43;;;;;;;2.28;2.08;;;26.50;98.60;;;;;;4879668;29;20479;-80
2021/06/26 12:50:12;;;;;;;2.00;1.90;;;26.60;99.10;;;;;;4901907;29;20490;-80
2021/06/26 12:55:59;;;;;;;1.95;1.85;;;26.40;99.80;;;;;;4906181;29;20411;-81